Espace membre
Imprimable
Challenges > Delhalle - Amay, 15/09/2019, BEL - Le Semi Vert d'Amay
Liste des rapports > Delhalle - Semi - Classement
Recherche: Page: [1]
79 Entrées
 
Les réclamations ne sont plus acceptées, les résultats sont considérés comme définitifs.
Catégorie
PosNrNomAgeIOCLigueEquipeRéelTempsTkmMoy.RangNomScrPtsLocalité
1.17DESILLE NICOLE52BELRIWARIWA1:38:071:38:104:40 12.901ai233885LA HULPE
2.798DEBONI MALORIE35BELRCBMYSTERE1:41:531:41:564:50 12.421dam52825IXELLES
3.4605KERIS MONIQUE55BELSERATH1:42:351:42:384:52 12.342ai255815BONCELLES
4.188VANDRIESSCHE CAROLINE37BELJC HSH1:43:181:43:184:54 12.262dam58804THUILLIES
5.221KLEMENCIC SCHMIDT NASTJA41SVN1:43:271:43:424:55 12.211ai164797KRAAINEM
6.481BINJE VALÉRIE49BEL1:46:231:46:265:03 11.902ai176754FIZE-FONTAINE
7.35GREGOIRE AUDE31BELRCNAMUR1:46:451:46:475:04 11.863dam79747FRANIÈRE
8.469JOLY VAUDOISEY ANNE52FRARCBMYSTERE1:46:481:46:495:04 11.853ai280746UCCLE
9.789CORDIER CHRISTINE53BELFOULEES DU PLAISIR1:48:141:48:285:09 11.674ai285726JUPRELLE
10.632CUISENAIRE KATHLEEN40BELLEG'S GO1:48:571:49:105:11 11.603ai191713JENEFFE
11.6873FOURGEAUX SOPHIE40BELMJ SPORMJ SPORT1:49:341:49:415:12 11.544ai195703
12.4595DEJARDIN CHRISTELLE45BELLES FRELONS1:50:431:50:505:16 11.425ai1105682JEHAY
13.763RICAILLE VINCIANE55BEL1:53:151:53:395:24 11.145ai2124638CHINY
14.651MATHY VALENTINE25BELRCNAMUR1:54:161:54:205:26 11.074dam129624NAMUR
15.819PIRSON FLORENCE47BELRIWA1:54:551:55:025:28 11.016ai1133613GENVAL
16.382WOUTERS CATHERINE52BELHERV1:55:241:55:335:29 10.966ai2141601XHENDELESSE
17.302MUNAUT CARINE56BELWACO1:57:301:57:575:36 10.737ai2159564LIMONT
18.694BAIJOT REGINE48BELJCCS1:58:021:58:075:36 10.727ai1161557HOUDREMONT
19.466DEMOULIN BRIGITTE59BELSMACRCNAMUR1:58:311:58:515:38 10.658ai2167546LUSTIN
20.42ROBERTI DAPHNÉ43BELRCNAMUR / METTET1:59:001:59:005:39 10.648ai1171538STAVE (METTET)
21.6860JACQUEMART GAELLE37BEL2:00:062:00:175:42 10.535dam175524JALLET
22.170VAST VÉRONIQUE41BELGAG2:00:102:00:245:43 10.529ai1176522GEMBLOUX
23.218ALEXANDRE FRANCOISE64BELMYSTERE2:01:132:01:195:45 10.441ai3182507VEDRIN
24.487VANDEWEYER ANJA50BELHUY2:02:392:02:495:50 10.319ai2191485ANTHEIT
25.606MIDDEL INE61BELROBA2:03:582:04:055:53 10.202ai3198467RAMSEL
26.4622VANHEES ZOÉ34BEL2:05:132:05:325:57 10.096dam203450AMPSIN
27.6839LORENT EMMA43BELVERTIGO2:05:102:05:545:59 10.0610ai1207447
28.6791HOUDMONT ALICE22BEL2:05:562:06:266:00 10.017dam211437
29.6770COLLINGS MARIE38BEL2:08:082:08:386:06 9.848dam218411
30.6817HOUSSA VIRGINIE38BEL2:08:312:08:526:07 9.839dam219406
31.4613SOMJA FLORENCE35BEL2:09:552:09:586:10 9.7410dam221392SERAING
32.6782DEQUINZE VIRGINIE43BEL2:09:282:10:066:10 9.7311ai1224393
33.6768GAIOTTI DIANA52BELBICHETTE TEAM2:10:022:10:286:11 9.7010ai2225388
34.4553MATHONET VERONIQUE50BEL2:10:162:10:296:11 9.7011ai2227384VINALMONT
35.4570GIANGIORDANO ANNE49BEL2:10:322:10:426:12 9.6912ai1230378HEURE LE ROMAIN
36.6779DAUTREBANDE NATHALIE46BELLES FRELONS2:11:412:11:436:15 9.6113ai1235364
37.6761MOYSE EVELYNE33BEL2:12:002:12:456:18 9.5411dam244353
38.4812LAHAYE SARAH33BEL2:12:002:12:456:18 9.5412dam245352
39.6841FEKETE CAROLINE53BEL2:13:232:13:356:20 9.4812ai2247338
40.6827BRAINE STEPHANIE37BEL2:13:402:14:276:23 9.4213dam253330
41.6794MONDOVITS BENEDICTE50BELCSFMYSTERE2:13:512:14:276:23 9.4213ai2254327
41.6793NA YOUNG CHRISTOPHE46BELCSFMYSTERE2:13:512:14:276:23 9.4214ai1254327
43.741COUTELLIER MARIE-LOUISE66BELESM2:14:342:15:186:25 9.363ai3258318GOUY-LEZ-PIÉTON
44.633MATTEZ GENEVIÈVE53BELAMARANTE COACH IMAGE2:14:582:15:276:26 9.3514ai2259314MONT-SAINT-GUIBERT
45.6843VERJANS ISARAH37BELTEAM BICHETTE2:15:412:16:006:27 9.3114dam263304
46.6787DETHIER CELIA37BEL2:15:552:16:106:28 9.3015dam264301
47.6764GANASSIN LUCIA58BELLES FRELONS2:16:072:16:146:28 9.2915ai2266297
48.6862ROBERT DOROTHY49BEL2:15:522:16:146:28 9.2915ai1268297
49.460VAN LOOCK MONIK58BELKASTEELLOPERS2:16:272:16:586:30 9.2416ai2270290VORSELAAR
50.639BOURMORCK CARINE52BELFLEU2:16:482:17:076:30 9.2317ai2272286AISEAU
51.4615BRAIBANT LINDSAY31BEL2:17:092:17:406:32 9.2016dam275280HUY
52.4564LUISETTO MOÏRA35BELLEGS GO2:17:092:17:406:32 9.2017dam276279HAVELANGE
53.6823LIZEE CYRIELLE34BEL2:16:542:17:416:32 9.2018dam277280
54.6858HOUTHOOFDT NATHALIE51BELLES FOULÉES DU PLAISIR2:17:482:18:216:34 9.1518ai2280270
55.6813HUSSON MELANIE38BELHUY ATHLETIC CLUB2:18:142:18:226:34 9.1519dam281266
56.279LAIXHAY JOSINE38BELUAC2:18:032:18:406:35 9.1320dam283265JUMET
57.31VILAIN CHRISTIANE HÉLÈNE74BELSPTWAVRE2:18:202:18:486:35 9.121ai4285261GREZ-DOICEAU
58.415NAHON SYLVIE51BELWACO2:20:362:21:096:42 8.9719ai2294234NEUVILLE-EN-CONDROZ
59.629ROLAND CATHY55BELACLO2:21:152:21:366:43 8.9420ai2295228GODARVILLE
60.826LAMERANT CHANTAL55BELOXYGENE2:22:302:22:446:46 8.8721ai2297217BIERCEE
61.6795WATHELET VANESSA44BEL2:22:442:23:086:47 8.8516ai1299213
62.6815BOGAERT ALINE34BEL2:23:062:23:196:48 8.8321dam300209
63.4557DETAILLE FRANCE29BEL2:22:412:23:216:48 8.8322dam301211MARNEFFE
64.6851BOREUX KATHLEEN39BEL2:24:052:24:246:51 8.7723dam304197
65.4581PEREE GÉRALDINE44BEL2:26:102:26:496:58 8.6217ai1306180HUY
66.6821LIESENS VINCIANE48BEL2:28:562:29:287:06 8.4718ai1310155
67.76MORRIS NICOLA-ELIZABETH59BELENJAMBEE2:29:162:29:357:06 8.4622ai2311152BRUXELLES
68.879GEERAERTS MAGALI31BELMYSTERE2:29:092:29:417:06 8.4624dam312152LEUZE
69.680DUPLAT ANNE42BELRCNAMUR2:29:202:29:547:07 8.4519ai1316146SAINT-SERVAIS
70.437VAN GORP ISABELLE48BELRONVAU2:29:522:30:347:09 8.4120ai1318141PERWEZ
71.6842DUBOIS ISABELLE43BELTEAM BICHETTE2:32:072:32:387:14 8.3021ai1321121
72.4585LABY JUSTINE32BEL2:36:402:37:277:28 8.0425dam32387AMPSIN
73.7HENNERESSE ISABELLE49BELMYSTERE2:37:462:38:307:31 7.9922ai132577GEDINNE
74.6772PIPARO AUDREY37BEL2:38:452:39:017:33 7.9626dam32769
75.6773CATTELAIN KARIN47BEL2:38:452:39:017:33 7.9623ai132868
76.6789ABRAHAM VINCIANE49BEL2:43:072:43:517:46 7.7324ai132937
77.179ROUSSEAUX AGNES50BEL2:45:502:46:327:54 7.6023ai233018GODINNE
78.475BRIBOSIA LAURENCE53BELRIWA2:57:012:57:488:26 7.1224ai23373RIXENSART
DSQ310CHARLES SOPHIE43BELWPRC2:13:192:14:04AI1RHODE-SAINT-GENESE
DNF: abandon; DSQ: disqualifié; Vitesse en km/h
Page: [1]